sensor_id;sensor_type;location;lat;lon;timestamp;pressure;altitude;pressure_sealevel;temperature;humidity
54122;BME280;40029;58.708;50.190;2023-03-23T00:00:47;99647.47;;;2.35;31.48
54122;BME280;40029;58.708;50.190;2023-03-23T00:03:18;99607.34;;;2.13;31.78
54122;BME280;40029;58.708;50.190;2023-03-23T00:05:52;99601.34;;;2.08;32.00
54122;BME280;40029;58.708;50.190;2023-03-23T00:08:23;99626.09;;;2.24;31.65
54122;BME280;40029;58.708;50.190;2023-03-23T00:10:54;99617.50;;;2.25;31.58
54122;BME280;40029;58.708;50.190;2023-03-23T00:13:28;99579.03;;;2.16;31.81
54122;BME280;40029;58.708;50.190;2023-03-23T00:15:59;99560.19;;;2.15;31.80
54122;BME280;40029;58.708;50.190;2023-03-23T00:18:30;99571.25;;;2.27;31.92
54122;BME280;40029;58.708;50.190;2023-03-23T00:21:02;99576.34;;;2.31;31.21
54122;BME280;40029;58.708;50.190;2023-03-23T00:23:34;99610.44;;;2.55;31.20
54122;BME280;40029;58.708;50.190;2023-03-23T00:26:06;99614.72;;;2.54;31.62
54122;BME280;40029;58.708;50.190;2023-03-23T00:28:37;99609.59;;;2.54;30.70
54122;BME280;40029;58.708;50.190;2023-03-23T00:31:09;99563.59;;;2.19;30.88
54122;BME280;40029;58.708;50.190;2023-03-23T00:33:41;99601.97;;;2.42;31.05
54122;BME280;40029;58.708;50.190;2023-03-23T00:36:13;99621.56;;;2.60;31.06
54122;BME280;40029;58.708;50.190;2023-03-23T00:38:44;99621.56;;;2.58;31.30
54122;BME280;40029;58.708;50.190;2023-03-23T00:41:17;99624.16;;;2.60;31.53
54122;BME280;40029;58.708;50.190;2023-03-23T00:43:48;99558.34;;;2.34;31.30
54122;BME280;40029;58.708;50.190;2023-03-23T00:46:23;99562.59;;;2.38;31.24
54122;BME280;40029;58.708;50.190;2023-03-23T00:48:56;99611.19;;;2.70;30.90
54122;BME280;40029;58.708;50.190;2023-03-23T00:51:28;99568.53;;;2.45;30.52
54122;BME280;40029;58.708;50.190;2023-03-23T00:53:59;99557.47;;;2.38;30.54
54122;BME280;40029;58.708;50.190;2023-03-23T00:56:30;99551.50;;;2.29;31.03
54122;BME280;40029;58.708;50.190;2023-03-23T00:59:02;99577.13;;;2.44;31.12
54122;BME280;40029;58.708;50.190;2023-03-23T01:01:33;99554.03;;;2.33;31.28
54122;BME280;40029;58.708;50.190;2023-03-23T01:04:05;99597.50;;;2.68;31.36
54122;BME280;40029;58.708;50.190;2023-03-23T01:06:37;99566.72;;;2.56;31.22
54122;BME280;40029;58.708;50.190;2023-03-23T01:09:13;99604.25;;;2.79;30.58
54122;BME280;40029;58.708;50.190;2023-03-23T01:11:47;99556.50;;;2.48;31.14
54122;BME280;40029;58.708;50.190;2023-03-23T01:14:18;99563.31;;;2.54;30.88
54122;BME280;40029;58.708;50.190;2023-03-23T01:16:50;99565.03;;;2.55;30.45
54122;BME280;40029;58.708;50.190;2023-03-23T01:19:22;99612.72;;;2.90;31.10
54122;BME280;40029;58.708;50.190;2023-03-23T01:21:53;99553.88;;;2.53;31.30
54122;BME280;40029;58.708;50.190;2023-03-23T01:24:24;99553.88;;;2.56;31.11
54122;BME280;40029;58.708;50.190;2023-03-23T01:26:56;99617.81;;;2.93;30.75
54122;BME280;40029;58.708;50.190;2023-03-23T01:29:27;99606.72;;;2.89;31.65
54122;BME280;40029;58.708;50.190;2023-03-23T01:31:58;99611.81;;;2.92;31.60
54122;BME280;40029;58.708;50.190;2023-03-23T01:34:30;99585.41;;;2.75;31.06
54122;BME280;40029;58.708;50.190;2023-03-23T01:37:02;99610.97;;;2.95;31.78
54122;BME280;40029;58.708;50.190;2023-03-23T01:39:35;99599.81;;;2.93;31.15
54122;BME280;40029;58.708;50.190;2023-03-23T01:42:11;99594.63;;;2.96;31.47
54122;BME280;40029;58.708;50.190;2023-03-23T01:47:21;99598.06;;;2.96;31.68
54122;BME280;40029;58.708;50.190;2023-03-23T01:49:56;99588.72;;;2.89;31.93
54122;BME280;40029;58.708;50.190;2023-03-23T01:52:27;99578.38;;;2.94;31.31
54122;BME280;40029;58.708;50.190;2023-03-23T01:55:06;99600.59;;;3.03;32.14
54122;BME280;40029;58.708;50.190;2023-03-23T01:57:37;99493.97;;;2.45;31.26
54122;BME280;40029;58.708;50.190;2023-03-23T02:00:09;99601.50;;;2.98;31.71
54122;BME280;40029;58.708;50.190;2023-03-23T02:02:50;99566.56;;;2.71;31.62
54122;BME280;40029;58.708;50.190;2023-03-23T02:05:32;99569.19;;;2.67;32.04
54122;BME280;40029;58.708;50.190;2023-03-23T02:08:11;99550.44;;;2.57;32.06
54122;BME280;40029;58.708;50.190;2023-03-23T02:10:45;99588.94;;;2.68;31.84
54122;BME280;40029;58.708;50.190;2023-03-23T02:13:17;99605.25;;;2.62;32.01
54122;BME280;40029;58.708;50.190;2023-03-23T02:16:02;99501.19;;;2.02;31.83
54122;BME280;40029;58.708;50.190;2023-03-23T02:32:41;99585.56;;;2.57;32.29
54122;BME280;40029;58.708;50.190;2023-03-23T02:35:39;99456.81;;;1.81;33.11
54122;BME280;40029;58.708;50.190;2023-03-23T02:38:18;99578.88;;;2.37;33.44
54122;BME280;40029;58.708;50.190;2023-03-23T02:40:54;99567.84;;;2.23;33.17
54122;BME280;40029;58.708;50.190;2023-03-23T02:43:32;99518.44;;;1.86;33.88
54122;BME280;40029;58.708;50.190;2023-03-23T02:46:07;99554.25;;;2.07;33.43
54122;BME280;40029;58.708;50.190;2023-03-23T02:48:41;99509.09;;;1.74;33.83
54122;BME280;40029;58.708;50.190;2023-03-23T02:51:14;99544.91;;;1.97;33.91
54122;BME280;40029;58.708;50.190;2023-03-23T02:53:47;99507.28;;;1.88;33.62
54122;BME280;40029;58.708;50.190;2023-03-23T02:56:22;99497.00;;;1.87;33.19
54122;BME280;40029;58.708;50.190;2023-03-23T02:58:55;99556.72;;;2.25;33.29
54122;BME280;40029;58.708;50.190;2023-03-23T03:04:05;99494.53;;;1.79;32.78
54122;BME280;40029;58.708;50.190;2023-03-23T03:12:09;99426.28;;;1.43;33.77
54122;BME280;40029;58.708;50.190;2023-03-23T03:17:43;99475.81;;;1.62;34.36
54122;BME280;40029;58.708;50.190;2023-03-23T03:20:17;99530.34;;;1.97;33.98
54122;BME280;40029;58.708;50.190;2023-03-23T03:22:50;99537.91;;;2.17;33.95
54122;BME280;40029;58.708;50.190;2023-03-23T03:25:25;99486.72;;;1.90;33.95
54122;BME280;40029;58.708;50.190;2023-03-23T03:28:00;99531.03;;;2.21;34.02
54122;BME280;40029;58.708;50.190;2023-03-23T03:30:55;99483.97;;;2.11;33.66
54122;BME280;40029;58.708;50.190;2023-03-23T03:33:28;99524.13;;;2.28;34.06
54122;BME280;40029;58.708;50.190;2023-03-23T03:36:04;99493.28;;;2.26;33.41
54122;BME280;40029;58.708;50.190;2023-03-23T03:38:44;99534.91;;;2.63;33.60
54122;BME280;40029;58.708;50.190;2023-03-23T03:41:19;99446.22;;;2.16;33.57
54122;BME280;40029;58.708;50.190;2023-03-23T03:43:51;99537.34;;;2.82;33.26
54122;BME280;40029;58.708;50.190;2023-03-23T03:46:22;99530.38;;;2.90;33.10
54122;BME280;40029;58.708;50.190;2023-03-23T03:49:02;99467.16;;;2.67;33.72
54122;BME280;40029;58.708;50.190;2023-03-23T03:51:33;99513.03;;;3.07;32.97
54122;BME280;40029;58.708;50.190;2023-03-23T03:54:05;99527.63;;;3.07;33.61
54122;BME280;40029;58.708;50.190;2023-03-23T03:56:37;99522.50;;;3.04;33.53
54122;BME280;40029;58.708;50.190;2023-03-23T03:59:29;99498.47;;;3.05;33.84
54122;BME280;40029;58.708;50.190;2023-03-23T04:02:27;99524.03;;;3.20;33.24
54122;BME280;40029;58.708;50.190;2023-03-23T04:04:59;99528.22;;;3.29;33.59
54122;BME280;40029;58.708;50.190;2023-03-23T04:07:35;99479.63;;;3.01;33.64
54122;BME280;40029;58.708;50.190;2023-03-23T04:10:10;99471.97;;;2.98;33.60
54122;BME280;40029;58.708;50.190;2023-03-23T04:12:49;99459.75;;;3.15;32.86
54122;BME280;40029;58.708;50.190;2023-03-23T04:15:24;99446.03;;;3.13;33.37
54122;BME280;40029;58.708;50.190;2023-03-23T04:17:55;99465.56;;;3.28;33.16
54122;BME280;40029;58.708;50.190;2023-03-23T04:20:28;99499.44;;;3.62;32.85
54122;BME280;40029;58.708;50.190;2023-03-23T04:23:00;99476.41;;;3.51;33.49
54122;BME280;40029;58.708;50.190;2023-03-23T04:25:34;99430.34;;;3.32;32.97
54122;BME280;40029;58.708;50.190;2023-03-23T04:28:08;99428.47;;;3.40;32.66
54122;BME280;40029;58.708;50.190;2023-03-23T04:30:48;99476.94;;;3.75;33.12
54122;BME280;40029;58.708;50.190;2023-03-23T04:33:24;99473.56;;;3.70;33.36
54122;BME280;40029;58.708;50.190;2023-03-23T04:36:00;99473.13;;;3.97;33.11
54122;BME280;40029;58.708;50.190;2023-03-23T04:38:41;99460.31;;;3.93;32.30
54122;BME280;40029;58.708;50.190;2023-03-23T04:41:22;99477.06;;;4.21;32.57
54122;BME280;40029;58.708;50.190;2023-03-23T04:44:13;99420.91;;;3.88;32.38
54122;BME280;40029;58.708;50.190;2023-03-23T04:46:52;99463.31;;;4.19;32.16
54122;BME280;40029;58.708;50.190;2023-03-23T04:49:25;99464.00;;;4.31;32.11
54122;BME280;40029;58.708;50.190;2023-03-23T04:52:07;99458.44;;;4.52;32.48
54122;BME280;40029;58.708;50.190;2023-03-23T04:54:46;99376.13;;;3.93;31.83
54122;BME280;40029;58.708;50.190;2023-03-23T04:57:18;99477.22;;;4.59;31.93
54122;BME280;40029;58.708;50.190;2023-03-23T05:00:06;99416.56;;;4.39;32.11
54122;BME280;40029;58.708;50.190;2023-03-23T05:02:46;99376.72;;;4.09;31.96
54122;BME280;40029;58.708;50.190;2023-03-23T05:05:27;99448.44;;;4.82;31.72
54122;BME280;40029;58.708;50.190;2023-03-23T05:08:01;99409.16;;;4.67;31.93
54122;BME280;40029;58.708;50.190;2023-03-23T05:10:36;99440.44;;;4.92;31.88
54122;BME280;40029;58.708;50.190;2023-03-23T05:13:14;99461.59;;;5.11;31.75
54122;BME280;40029;58.708;50.190;2023-03-23T05:15:51;99449.63;;;5.07;31.62
54122;BME280;40029;58.708;50.190;2023-03-23T05:18:22;99463.88;;;5.25;31.39
54122;BME280;40029;58.708;50.190;2023-03-23T05:20:54;99435.66;;;5.16;31.42
54122;BME280;40029;58.708;50.190;2023-03-23T05:23:27;99387.81;;;4.99;31.39
54122;BME280;40029;58.708;50.190;2023-03-23T05:26:09;99392.72;;;5.12;30.97
54122;BME280;40029;58.708;50.190;2023-03-23T05:28:40;99382.19;;;5.21;30.75
54122;BME280;40029;58.708;50.190;2023-03-23T05:31:24;99446.63;;;5.64;30.79
54122;BME280;40029;58.708;50.190;2023-03-23T05:33:55;99443.22;;;5.64;30.94
54122;BME280;40029;58.708;50.190;2023-03-23T05:36:34;99397.94;;;5.47;30.97
54122;BME280;40029;58.708;50.190;2023-03-23T05:39:12;99385.72;;;5.54;30.33
54122;BME280;40029;58.708;50.190;2023-03-23T05:42:04;99427.69;;;6.01;30.28
54122;BME280;40029;58.708;50.190;2023-03-23T05:44:47;99420.59;;;6.09;30.11
54122;BME280;40029;58.708;50.190;2023-03-23T05:47:18;99423.97;;;6.13;30.44
54122;BME280;40029;58.708;50.190;2023-03-23T05:49:57;99410.94;;;6.16;30.22
54122;BME280;40029;58.708;50.190;2023-03-23T05:52:30;99398.06;;;6.47;29.96
54122;BME280;40029;58.708;50.190;2023-03-23T05:55:05;99406.63;;;6.49;29.35
54122;BME280;40029;58.708;50.190;2023-03-23T05:57:40;99342.94;;;6.12;29.86
54122;BME280;40029;58.708;50.190;2023-03-23T06:00:32;99391.00;;;6.52;29.30
54122;BME280;40029;58.708;50.190;2023-03-23T06:03:17;99390.47;;;6.72;28.59
54122;BME280;40029;58.708;50.190;2023-03-23T06:05:58;99371.22;;;6.49;28.99
54122;BME280;40029;58.708;50.190;2023-03-23T06:08:37;99407.00;;;6.97;28.53
54122;BME280;40029;58.708;50.190;2023-03-23T06:11:09;99406.44;;;7.16;27.98
54122;BME280;40029;58.708;50.190;2023-03-23T06:13:47;99310.63;;;6.57;27.73
54122;BME280;40029;58.708;50.190;2023-03-23T06:16:19;99393.00;;;7.03;27.95
54122;BME280;40029;58.708;50.190;2023-03-23T06:18:56;99408.09;;;7.18;28.07
54122;BME280;40029;58.708;50.190;2023-03-23T06:21:33;99406.59;;;7.11;28.42
54122;BME280;40029;58.708;50.190;2023-03-23T06:24:25;99381.59;;;7.09;28.21
54122;BME280;40029;58.708;50.190;2023-03-23T06:27:00;99346.19;;;7.09;28.19
54122;BME280;40029;58.708;50.190;2023-03-23T06:29:32;99393.59;;;7.41;27.65
54122;BME280;40029;58.708;50.190;2023-03-23T06:32:04;99387.34;;;7.46;28.11
54122;BME280;40029;58.708;50.190;2023-03-23T06:34:36;99344.72;;;7.00;28.49
54122;BME280;40029;58.708;50.190;2023-03-23T06:37:26;99393.59;;;7.41;27.64
54122;BME280;40029;58.708;50.190;2023-03-23T06:40:07;99365.31;;;7.33;27.86
54122;BME280;40029;58.708;50.190;2023-03-23T06:42:44;99332.91;;;7.20;27.84
54122;BME280;40029;58.708;50.190;2023-03-23T06:45:27;99373.78;;;7.38;28.55
54122;BME280;40029;58.708;50.190;2023-03-23T06:48:18;99340.38;;;7.29;28.28
54122;BME280;40029;58.708;50.190;2023-03-23T06:50:49;99407.00;;;7.25;28.84
54122;BME280;40029;58.708;50.190;2023-03-23T06:53:23;99393.19;;;7.26;28.76
54122;BME280;40029;58.708;50.190;2023-03-23T06:55:55;99404.56;;;7.49;28.24
54122;BME280;40029;58.708;50.190;2023-03-23T06:58:27;99401.34;;;7.69;28.34
54122;BME280;40029;58.708;50.190;2023-03-23T07:01:00;99351.88;;;7.20;28.23
54122;BME280;40029;58.708;50.190;2023-03-23T07:03:39;99401.75;;;7.83;27.97
54122;BME280;40029;58.708;50.190;2023-03-23T07:06:13;99396.28;;;7.64;28.42
54122;BME280;40029;58.708;50.190;2023-03-23T07:08:52;99402.75;;;7.79;28.42
54122;BME280;40029;58.708;50.190;2023-03-23T07:11:27;99347.47;;;7.50;28.09
54122;BME280;40029;58.708;50.190;2023-03-23T07:13:59;99332.22;;;7.68;28.12
54122;BME280;40029;58.708;50.190;2023-03-23T07:16:30;99310.91;;;7.85;28.01
54122;BME280;40029;58.708;50.190;2023-03-23T07:19:02;99354.59;;;8.22;27.62
54122;BME280;40029;58.708;50.190;2023-03-23T07:21:33;99338.97;;;8.23;27.80
54122;BME280;40029;58.708;50.190;2023-03-23T07:24:05;99370.44;;;8.39;27.39
54122;BME280;40029;58.708;50.190;2023-03-23T07:26:51;99376.16;;;8.49;27.72
54122;BME280;40029;58.708;50.190;2023-03-23T07:29:23;99314.81;;;8.21;27.48
54122;BME280;40029;58.708;50.190;2023-03-23T07:32:03;99352.47;;;8.58;27.63
54122;BME280;40029;58.708;50.190;2023-03-23T07:34:34;99338.13;;;8.71;27.00
54122;BME280;40029;58.708;50.190;2023-03-23T07:37:29;99337.91;;;8.77;27.33
54122;BME280;40029;58.708;50.190;2023-03-23T07:40:04;99332.59;;;8.81;27.42
54122;BME280;40029;58.708;50.190;2023-03-23T07:42:55;99299.06;;;8.51;27.46
54122;BME280;40029;58.708;50.190;2023-03-23T07:45:52;99279.91;;;8.54;27.28
54122;BME280;40029;58.708;50.190;2023-03-23T07:48:25;99287.28;;;8.42;27.59
54122;BME280;40029;58.708;50.190;2023-03-23T07:50:58;99312.16;;;8.71;27.18
54122;BME280;40029;58.708;50.190;2023-03-23T07:53:32;99280.34;;;8.43;27.49
54122;BME280;40029;58.708;50.190;2023-03-23T07:56:22;99272.50;;;8.66;26.99
54122;BME280;40029;58.708;50.190;2023-03-23T07:59:01;99334.25;;;9.05;27.21
54122;BME280;40029;58.708;50.190;2023-03-23T08:01:33;99333.09;;;9.12;26.81
54122;BME280;40029;58.708;50.190;2023-03-23T08:04:23;99326.69;;;8.99;27.34
54122;BME280;40029;58.708;50.190;2023-03-23T08:07:13;99318.78;;;9.02;27.17
54122;BME280;40029;58.708;50.190;2023-03-23T08:10:10;99327.97;;;8.89;27.48
54122;BME280;40029;58.708;50.190;2023-03-23T08:13:08;99321.13;;;9.08;26.68
54122;BME280;40029;58.708;50.190;2023-03-23T08:15:59;99304.56;;;8.89;27.36
54122;BME280;40029;58.708;50.190;2023-03-23T08:18:52;99317.63;;;8.64;27.66
54122;BME280;40029;58.708;50.190;2023-03-23T08:21:58;99257.72;;;8.68;27.54
54122;BME280;40029;58.708;50.190;2023-03-23T08:24:58;99311.28;;;9.16;26.94
54122;BME280;40029;58.708;50.190;2023-03-23T08:28:07;99292.78;;;9.02;27.26
54122;BME280;40029;58.708;50.190;2023-03-23T08:30:55;99269.91;;;8.66;27.96
54122;BME280;40029;58.708;50.190;2023-03-23T08:33:39;99297.25;;;8.98;27.69
54122;BME280;40029;58.708;50.190;2023-03-23T08:36:31;99240.44;;;9.11;27.70
54122;BME280;40029;58.708;50.190;2023-03-23T08:39:21;99242.03;;;9.15;27.75
54122;BME280;40029;58.708;50.190;2023-03-23T08:42:26;99287.81;;;9.40;27.53
54122;BME280;40029;58.708;50.190;2023-03-23T08:44:57;99232.22;;;9.22;27.32
54122;BME280;40029;58.708;50.190;2023-03-23T08:47:47;99229.75;;;9.19;27.07
54122;BME280;40029;58.708;50.190;2023-03-23T08:50:31;99227.53;;;9.10;27.36
54122;BME280;40029;58.708;50.190;2023-03-23T08:53:05;99219.94;;;9.05;27.07
54122;BME280;40029;58.708;50.190;2023-03-23T08:55:53;99231.66;;;9.36;27.23
54122;BME280;40029;58.708;50.190;2023-03-23T08:58:45;99257.59;;;9.58;26.86
54122;BME280;40029;58.708;50.190;2023-03-23T09:01:25;99242.00;;;9.58;26.94
54122;BME280;40029;58.708;50.190;2023-03-23T09:04:17;99260.25;;;9.76;27.18
54122;BME280;40029;58.708;50.190;2023-03-23T09:06:55;99260.81;;;9.64;26.80
54122;BME280;40029;58.708;50.190;2023-03-23T09:09:27;99210.06;;;9.74;26.68
54122;BME280;40029;58.708;50.190;2023-03-23T09:11:59;99207.84;;;9.86;26.37
54122;BME280;40029;58.708;50.190;2023-03-23T09:14:29;99259.25;;;10.20;26.74
54122;BME280;40029;58.708;50.190;2023-03-23T09:17:01;99213.22;;;9.81;26.76
54122;BME280;40029;58.708;50.190;2023-03-23T09:19:34;99230.47;;;9.84;26.44
54122;BME280;40029;58.708;50.190;2023-03-23T09:22:05;99261.59;;;10.06;27.06
54122;BME280;40029;58.708;50.190;2023-03-23T09:24:36;99245.66;;;10.13;27.05
54122;BME280;40029;58.708;50.190;2023-03-23T09:27:07;99210.81;;;9.97;26.67
54122;BME280;40029;58.708;50.190;2023-03-23T09:29:39;99201.91;;;10.21;26.65
54122;BME280;40029;58.708;50.190;2023-03-23T09:32:10;99196.06;;;10.16;25.64
54122;BME280;40029;58.708;50.190;2023-03-23T09:34:44;99077.84;;;9.45;25.75
54122;BME280;40029;58.708;50.190;2023-03-23T09:37:15;99255.50;;;10.46;26.13
54122;BME280;40029;58.708;50.190;2023-03-23T09:39:47;99222.63;;;10.43;26.35
54122;BME280;40029;58.708;50.190;2023-03-23T09:43:20;99244.09;;;10.30;26.07
54122;BME280;40029;58.708;50.190;2023-03-23T09:45:29;99241.84;;;10.41;26.46
54122;BME280;40029;58.708;50.190;2023-03-23T09:48:45;99229.66;;;10.41;26.69
54122;BME280;40029;58.708;50.190;2023-03-23T09:54:27;99178.66;;;10.37;26.38
54122;BME280;40029;58.708;50.190;2023-03-23T09:56:59;99185.09;;;10.47;26.21
54122;BME280;40029;58.708;50.190;2023-03-23T09:59:39;99131.28;;;10.29;25.33
54122;BME280;40029;58.708;50.190;2023-03-23T10:02:18;99171.81;;;10.54;25.28
54122;BME280;40029;58.708;50.190;2023-03-23T10:04:51;99188.59;;;10.65;25.42
54122;BME280;40029;58.708;50.190;2023-03-23T10:07:26;99217.72;;;10.73;25.73
54122;BME280;40029;58.708;50.190;2023-03-23T10:10:00;99206.44;;;10.37;25.90
54122;BME280;40029;58.708;50.190;2023-03-23T10:15:36;99140.00;;;9.90;26.08
54122;BME280;40029;58.708;50.190;2023-03-23T10:25:57;99171.84;;;10.14;26.31
54122;BME280;40029;58.708;50.190;2023-03-23T10:28:41;99218.03;;;10.48;26.70
54122;BME280;40029;58.708;50.190;2023-03-23T10:31:18;99154.72;;;10.29;26.95
54122;BME280;40029;58.708;50.190;2023-03-23T10:33:54;99160.16;;;10.23;25.93
54122;BME280;40029;58.708;50.190;2023-03-23T10:36:35;99155.06;;;10.02;27.00
54122;BME280;40029;58.708;50.190;2023-03-23T10:39:18;99156.00;;;10.19;26.62
54122;BME280;40029;58.708;50.190;2023-03-23T10:41:50;99150.50;;;10.26;26.00
54122;BME280;40029;58.708;50.190;2023-03-23T10:44:24;99145.31;;;10.44;26.40
54122;BME280;40029;58.708;50.190;2023-03-23T10:47:02;99192.50;;;10.74;26.54
54122;BME280;40029;58.708;50.190;2023-03-23T10:55:03;99167.50;;;11.06;26.08
54122;BME280;40029;58.708;50.190;2023-03-23T10:57:38;99182.91;;;11.28;25.63
54122;BME280;40029;58.708;50.190;2023-03-23T11:00:23;99178.75;;;10.89;25.55
54122;BME280;40029;58.708;50.190;2023-03-23T11:03:06;99199.44;;;10.75;25.81
54122;BME280;40029;58.708;50.190;2023-03-23T11:08:23;99189.94;;;10.91;26.25
54122;BME280;40029;58.708;50.190;2023-03-23T11:10:57;99176.97;;;10.72;26.01
54122;BME280;40029;58.708;50.190;2023-03-23T11:13:32;99174.84;;;10.81;25.87
54122;BME280;40029;58.708;50.190;2023-03-23T11:16:04;99128.63;;;10.67;25.97
54122;BME280;40029;58.708;50.190;2023-03-23T11:18:41;99173.47;;;11.08;25.17
54122;BME280;40029;58.708;50.190;2023-03-23T11:21:15;99132.16;;;10.83;25.63
54122;BME280;40029;58.708;50.190;2023-03-23T11:23:51;99173.69;;;10.86;25.39
54122;BME280;40029;58.708;50.190;2023-03-23T11:26:32;99145.03;;;10.86;26.01
54122;BME280;40029;58.708;50.190;2023-03-23T11:29:05;99168.22;;;11.10;25.92
54122;BME280;40029;58.708;50.190;2023-03-23T11:31:44;99165.38;;;11.14;26.15
54122;BME280;40029;58.708;50.190;2023-03-23T11:34:21;99134.47;;;10.89;26.46
54122;BME280;40029;58.708;50.190;2023-03-23T11:36:58;99167.13;;;11.14;25.61
54122;BME280;40029;58.708;50.190;2023-03-23T11:42:24;99125.41;;;10.96;26.00
54122;BME280;40029;58.708;50.190;2023-03-23T11:45:24;99119.97;;;11.01;25.74
54122;BME280;40029;58.708;50.190;2023-03-23T11:50:59;99138.91;;;11.05;25.01
54122;BME280;40029;58.708;50.190;2023-03-23T11:53:55;99135.28;;;11.24;25.68
54122;BME280;40029;58.708;50.190;2023-03-23T11:56:42;99160.16;;;11.14;24.94
54122;BME280;40029;58.708;50.190;2023-03-23T11:59:26;99136.13;;;10.90;25.19
54122;BME280;40029;58.708;50.190;2023-03-23T12:02:23;99108.03;;;10.97;25.50
54122;BME280;40029;58.708;50.190;2023-03-23T12:13:18;99177.34;;;11.86;24.76
54122;BME280;40029;58.708;50.190;2023-03-23T12:22:00;99169.41;;;12.37;23.19
54122;BME280;40029;58.708;50.190;2023-03-23T12:25:05;99127.09;;;12.14;23.14
54122;BME280;40029;58.708;50.190;2023-03-23T12:30:41;99175.06;;;12.45;22.77
54122;BME280;40029;58.708;50.190;2023-03-23T12:33:44;99159.19;;;12.64;23.17
54122;BME280;40029;58.708;50.190;2023-03-23T12:36:28;99148.16;;;12.27;22.59
54122;BME280;40029;58.708;50.190;2023-03-23T12:42:16;99157.09;;;12.70;23.25
54122;BME280;40029;58.708;50.190;2023-03-23T12:44:55;99151.09;;;12.52;23.14
54122;BME280;40029;58.708;50.190;2023-03-23T12:47:35;99136.38;;;12.04;23.20
54122;BME280;40029;58.708;50.190;2023-03-23T12:57:55;99148.03;;;11.81;24.38
54122;BME280;40029;58.708;50.190;2023-03-23T13:01:00;99149.34;;;11.90;23.96
54122;BME280;40029;58.708;50.190;2023-03-23T13:03:33;99148.03;;;11.81;24.34
54122;BME280;40029;58.708;50.190;2023-03-23T13:08:54;99151.16;;;11.37;24.88
54122;BME280;40029;58.708;50.190;2023-03-23T13:11:37;99150.31;;;11.37;24.82
54122;BME280;40029;58.708;50.190;2023-03-23T13:20:16;99119.94;;;12.02;23.68
54122;BME280;40029;58.708;50.190;2023-03-23T13:22:59;99075.84;;;11.64;23.61
54122;BME280;40029;58.708;50.190;2023-03-23T13:26:03;99112.03;;;11.70;23.75
54122;BME280;40029;58.708;50.190;2023-03-23T13:31:32;99176.25;;;11.40;25.04
54122;BME280;40029;58.708;50.190;2023-03-23T13:34:25;99165.50;;;11.79;24.43
54122;BME280;40029;58.708;50.190;2023-03-23T13:37:04;99110.88;;;11.25;23.95
54122;BME280;40029;58.708;50.190;2023-03-23T13:39:51;99114.97;;;11.31;24.88
54122;BME280;40029;58.708;50.190;2023-03-23T13:42:28;99130.44;;;11.17;24.69
54122;BME280;40029;58.708;50.190;2023-03-23T13:45:18;99168.50;;;11.04;25.60
54122;BME280;40029;58.708;50.190;2023-03-23T13:50:54;99131.19;;;10.12;26.62
54122;BME280;40029;58.708;50.190;2023-03-23T13:53:47;99159.44;;;10.19;26.45
54122;BME280;40029;58.708;50.190;2023-03-23T13:56:39;99167.00;;;9.67;27.47
54122;BME280;40029;58.708;50.190;2023-03-23T13:59:16;99151.78;;;9.79;27.91
54122;BME280;40029;58.708;50.190;2023-03-23T14:01:48;99127.13;;;9.48;27.31
54122;BME280;40029;58.708;50.190;2023-03-23T14:04:21;99122.19;;;9.42;28.00
54122;BME280;40029;58.708;50.190;2023-03-23T14:06:52;99108.75;;;9.32;27.81
54122;BME280;40029;58.708;50.190;2023-03-23T14:09:37;99151.25;;;9.51;28.65
54122;BME280;40029;58.708;50.190;2023-03-23T14:12:19;99164.31;;;9.50;28.61
54122;BME280;40029;58.708;50.190;2023-03-23T14:14:57;99165.41;;;9.44;28.46
54122;BME280;40029;58.708;50.190;2023-03-23T14:17:40;99153.88;;;9.31;28.29
54122;BME280;40029;58.708;50.190;2023-03-23T14:20:26;99152.41;;;9.24;29.38
54122;BME280;40029;58.708;50.190;2023-03-23T14:23:00;99172.63;;;9.38;28.36
54122;BME280;40029;58.708;50.190;2023-03-23T14:25:32;99153.38;;;9.21;29.48
54122;BME280;40029;58.708;50.190;2023-03-23T14:28:03;99120.84;;;8.92;29.29
54122;BME280;40029;58.708;50.190;2023-03-23T14:30:36;99164.38;;;9.08;29.82
54122;BME280;40029;58.708;50.190;2023-03-23T14:33:10;99118.69;;;8.82;29.97
54122;BME280;40029;58.708;50.190;2023-03-23T14:35:43;99128.69;;;8.91;29.66
54122;BME280;40029;58.708;50.190;2023-03-23T14:38:20;99113.16;;;8.69;30.23
54122;BME280;40029;58.708;50.190;2023-03-23T14:41:00;99105.84;;;8.57;31.15
54122;BME280;40029;58.708;50.190;2023-03-23T14:43:34;99096.59;;;8.49;30.71
54122;BME280;40029;58.708;50.190;2023-03-23T14:46:07;99105.13;;;8.53;30.73
54122;BME280;40029;58.708;50.190;2023-03-23T14:48:41;99121.25;;;8.61;30.90
54122;BME280;40029;58.708;50.190;2023-03-23T14:51:20;99080.56;;;8.40;30.81
54122;BME280;40029;58.708;50.190;2023-03-23T14:53:52;99113.44;;;8.61;30.43
54122;BME280;40029;58.708;50.190;2023-03-23T14:56:24;99086.03;;;8.32;31.19
54122;BME280;40029;58.708;50.190;2023-03-23T14:59:05;99026.00;;;7.97;31.26
54122;BME280;40029;58.708;50.190;2023-03-23T15:01:39;99109.66;;;8.48;31.00
54122;BME280;40029;58.708;50.190;2023-03-23T15:04:20;99021.41;;;8.04;31.66
54122;BME280;40029;58.708;50.190;2023-03-23T15:06:59;99061.63;;;8.38;31.65
54122;BME280;40029;58.708;50.190;2023-03-23T15:09:31;99049.84;;;8.29;31.12
54122;BME280;40029;58.708;50.190;2023-03-23T15:12:05;99057.00;;;8.22;31.37
54122;BME280;40029;58.708;50.190;2023-03-23T15:14:48;99047.91;;;8.12;32.05
54122;BME280;40029;58.708;50.190;2023-03-23T15:17:22;99043.38;;;8.17;31.76
54122;BME280;40029;58.708;50.190;2023-03-23T15:19:55;99047.66;;;8.18;31.94
54122;BME280;40029;58.708;50.190;2023-03-23T15:22:30;99048.13;;;8.06;32.23
54122;BME280;40029;58.708;50.190;2023-03-23T15:25:20;99092.78;;;8.14;32.66
54122;BME280;40029;58.708;50.190;2023-03-23T15:30:47;99051.09;;;7.97;32.74
54122;BME280;40029;58.708;50.190;2023-03-23T15:33:19;99066.84;;;8.14;32.05
54122;BME280;40029;58.708;50.190;2023-03-23T15:35:58;98998.59;;;7.68;32.50